sensor_id;sensor_type;location;lat;lon;timestamp;P1;durP1;ratioP1;P2;durP2;ratioP2
60726;SDS011;46577;49.004;12.120;2023-06-19T00:02:17;14.53;;;7.87;;
60726;SDS011;46577;49.004;12.120;2023-06-19T00:04:43;9.03;;;8.03;;
60726;SDS011;46577;49.004;12.120;2023-06-19T00:07:08;11.33;;;9.10;;
60726;SDS011;46577;49.004;12.120;2023-06-19T00:09:34;12.73;;;8.40;;
60726;SDS011;46577;49.004;12.120;2023-06-19T00:12:00;10.67;;;8.70;;
60726;SDS011;46577;49.004;12.120;2023-06-19T00:14:26;9.80;;;8.10;;
60726;SDS011;46577;49.004;12.120;2023-06-19T00:16:52;11.57;;;8.60;;
60726;SDS011;46577;49.004;12.120;2023-06-19T00:19:17;13.90;;;8.63;;
60726;SDS011;46577;49.004;12.120;2023-06-19T00:21:43;9.30;;;7.53;;
60726;SDS011;46577;49.004;12.120;2023-06-19T00:24:09;12.23;;;8.07;;
60726;SDS011;46577;49.004;12.120;2023-06-19T00:26:35;10.40;;;7.70;;
60726;SDS011;46577;49.004;12.120;2023-06-19T00:29:01;10.03;;;7.93;;
60726;SDS011;46577;49.004;12.120;2023-06-19T00:31:27;10.67;;;7.67;;
60726;SDS011;46577;49.004;12.120;2023-06-19T00:33:52;19.70;;;7.70;;
60726;SDS011;46577;49.004;12.120;2023-06-19T00:36:18;11.50;;;8.70;;
60726;SDS011;46577;49.004;12.120;2023-06-19T00:38:49;10.10;;;8.33;;
60726;SDS011;46577;49.004;12.120;2023-06-19T00:41:15;11.67;;;8.57;;
60726;SDS011;46577;49.004;12.120;2023-06-19T00:43:41;12.30;;;8.57;;
60726;SDS011;46577;49.004;12.120;2023-06-19T00:46:07;16.73;;;9.37;;
60726;SDS011;46577;49.004;12.120;2023-06-19T00:48:33;13.13;;;8.63;;
60726;SDS011;46577;49.004;12.120;2023-06-19T00:50:59;13.63;;;8.90;;
60726;SDS011;46577;49.004;12.120;2023-06-19T00:53:25;13.30;;;9.57;;
60726;SDS011;46577;49.004;12.120;2023-06-19T00:55:52;10.67;;;8.57;;
60726;SDS011;46577;49.004;12.120;2023-06-19T00:58:20;11.27;;;9.20;;
60726;SDS011;46577;49.004;12.120;2023-06-19T01:00:46;13.87;;;9.43;;
60726;SDS011;46577;49.004;12.120;2023-06-19T01:03:13;13.43;;;8.80;;
60726;SDS011;46577;49.004;12.120;2023-06-19T01:05:39;14.90;;;8.80;;
60726;SDS011;46577;49.004;12.120;2023-06-19T01:08:08;12.43;;;9.83;;
60726;SDS011;46577;49.004;12.120;2023-06-19T01:10:49;10.17;;;8.70;;
60726;SDS011;46577;49.004;12.120;2023-06-19T01:13:21;13.00;;;8.83;;
60726;SDS011;46577;49.004;12.120;2023-06-19T01:15:47;15.13;;;9.40;;
60726;SDS011;46577;49.004;12.120;2023-06-19T01:18:14;15.70;;;8.90;;
60726;SDS011;46577;49.004;12.120;2023-06-19T01:20:40;15.10;;;10.10;;
60726;SDS011;46577;49.004;12.120;2023-06-19T01:23:09;8.60;;;7.53;;
60726;SDS011;46577;49.004;12.120;2023-06-19T01:25:36;12.10;;;9.30;;
60726;SDS011;46577;49.004;12.120;2023-06-19T01:28:05;13.57;;;8.93;;
60726;SDS011;46577;49.004;12.120;2023-06-19T01:30:34;12.50;;;9.57;;
60726;SDS011;46577;49.004;12.120;2023-06-19T01:33:03;10.73;;;8.93;;
60726;SDS011;46577;49.004;12.120;2023-06-19T01:35:45;14.30;;;9.47;;
60726;SDS011;46577;49.004;12.120;2023-06-19T01:38:12;12.50;;;10.10;;
60726;SDS011;46577;49.004;12.120;2023-06-19T01:40:39;11.50;;;9.97;;
60726;SDS011;46577;49.004;12.120;2023-06-19T01:43:05;12.47;;;9.50;;
60726;SDS011;46577;49.004;12.120;2023-06-19T01:45:33;18.70;;;10.70;;
60726;SDS011;46577;49.004;12.120;2023-06-19T01:47:59;10.70;;;8.57;;
60726;SDS011;46577;49.004;12.120;2023-06-19T01:50:25;10.53;;;9.20;;
60726;SDS011;46577;49.004;12.120;2023-06-19T01:52:51;12.70;;;8.80;;
60726;SDS011;46577;49.004;12.120;2023-06-19T01:55:16;13.50;;;10.07;;
60726;SDS011;46577;49.004;12.120;2023-06-19T01:57:42;12.63;;;9.47;;
60726;SDS011;46577;49.004;12.120;2023-06-19T02:00:10;13.73;;;8.93;;
60726;SDS011;46577;49.004;12.120;2023-06-19T02:02:37;13.70;;;9.23;;
60726;SDS011;46577;49.004;12.120;2023-06-19T02:05:02;14.57;;;9.43;;
60726;SDS011;46577;49.004;12.120;2023-06-19T02:07:29;11.37;;;9.20;;
60726;SDS011;46577;49.004;12.120;2023-06-19T02:09:55;11.00;;;9.10;;
60726;SDS011;46577;49.004;12.120;2023-06-19T02:12:21;12.00;;;9.07;;
60726;SDS011;46577;49.004;12.120;2023-06-19T02:14:47;12.67;;;8.73;;
60726;SDS011;46577;49.004;12.120;2023-06-19T02:17:12;12.87;;;10.43;;
60726;SDS011;46577;49.004;12.120;2023-06-19T02:19:38;11.83;;;8.60;;
60726;SDS011;46577;49.004;12.120;2023-06-19T02:22:03;12.40;;;9.90;;
60726;SDS011;46577;49.004;12.120;2023-06-19T02:24:29;13.00;;;9.90;;
60726;SDS011;46577;49.004;12.120;2023-06-19T02:26:55;12.00;;;9.33;;
60726;SDS011;46577;49.004;12.120;2023-06-19T02:29:20;13.90;;;10.30;;
60726;SDS011;46577;49.004;12.120;2023-06-19T02:31:46;12.50;;;10.07;;
60726;SDS011;46577;49.004;12.120;2023-06-19T02:34:12;10.83;;;8.30;;
60726;SDS011;46577;49.004;12.120;2023-06-19T02:36:37;11.43;;;9.53;;
60726;SDS011;46577;49.004;12.120;2023-06-19T02:39:04;12.13;;;9.27;;
60726;SDS011;46577;49.004;12.120;2023-06-19T02:41:31;11.50;;;9.20;;
60726;SDS011;46577;49.004;12.120;2023-06-19T02:43:56;12.53;;;9.17;;
60726;SDS011;46577;49.004;12.120;2023-06-19T02:46:22;13.73;;;8.90;;
60726;SDS011;46577;49.004;12.120;2023-06-19T02:48:48;11.03;;;9.10;;
60726;SDS011;46577;49.004;12.120;2023-06-19T02:51:13;10.43;;;8.83;;
60726;SDS011;46577;49.004;12.120;2023-06-19T02:53:39;10.93;;;8.27;;
60726;SDS011;46577;49.004;12.120;2023-06-19T02:56:05;12.23;;;9.40;;
60726;SDS011;46577;49.004;12.120;2023-06-19T02:58:32;12.37;;;9.33;;
60726;SDS011;46577;49.004;12.120;2023-06-19T03:00:59;14.30;;;9.00;;
60726;SDS011;46577;49.004;12.120;2023-06-19T03:03:25;13.73;;;10.30;;
60726;SDS011;46577;49.004;12.120;2023-06-19T03:05:50;20.10;;;9.83;;
60726;SDS011;46577;49.004;12.120;2023-06-19T03:08:16;14.80;;;9.50;;
60726;SDS011;46577;49.004;12.120;2023-06-19T03:10:42;14.33;;;10.40;;
60726;SDS011;46577;49.004;12.120;2023-06-19T03:13:07;13.67;;;8.73;;
60726;SDS011;46577;49.004;12.120;2023-06-19T03:15:33;17.07;;;10.40;;
60726;SDS011;46577;49.004;12.120;2023-06-19T03:17:58;18.70;;;9.40;;
60726;SDS011;46577;49.004;12.120;2023-06-19T03:20:24;18.03;;;9.57;;
60726;SDS011;46577;49.004;12.120;2023-06-19T03:22:49;11.97;;;8.83;;
60726;SDS011;46577;49.004;12.120;2023-06-19T03:25:15;13.17;;;9.40;;
60726;SDS011;46577;49.004;12.120;2023-06-19T03:27:40;11.73;;;8.13;;
60726;SDS011;46577;49.004;12.120;2023-06-19T03:30:06;14.10;;;8.93;;
60726;SDS011;46577;49.004;12.120;2023-06-19T03:32:33;14.80;;;10.00;;
60726;SDS011;46577;49.004;12.120;2023-06-19T03:34:59;18.73;;;9.00;;
60726;SDS011;46577;49.004;12.120;2023-06-19T03:37:26;13.70;;;9.20;;
60726;SDS011;46577;49.004;12.120;2023-06-19T03:39:51;11.63;;;9.10;;
60726;SDS011;46577;49.004;12.120;2023-06-19T03:42:17;11.80;;;9.13;;
60726;SDS011;46577;49.004;12.120;2023-06-19T03:44:42;14.67;;;9.20;;
60726;SDS011;46577;49.004;12.120;2023-06-19T03:47:08;14.93;;;9.30;;
60726;SDS011;46577;49.004;12.120;2023-06-19T03:49:33;13.43;;;9.37;;
60726;SDS011;46577;49.004;12.120;2023-06-19T03:51:59;15.10;;;10.13;;
60726;SDS011;46577;49.004;12.120;2023-06-19T03:54:25;15.20;;;9.63;;
60726;SDS011;46577;49.004;12.120;2023-06-19T03:56:51;12.13;;;10.03;;
60726;SDS011;46577;49.004;12.120;2023-06-19T03:59:17;14.57;;;9.40;;
60726;SDS011;46577;49.004;12.120;2023-06-19T04:01:43;11.90;;;7.67;;
60726;SDS011;46577;49.004;12.120;2023-06-19T04:04:08;21.00;;;9.03;;
60726;SDS011;46577;49.004;12.120;2023-06-19T04:06:34;12.17;;;8.80;;
60726;SDS011;46577;49.004;12.120;2023-06-19T04:09:00;14.03;;;9.00;;
60726;SDS011;46577;49.004;12.120;2023-06-19T04:11:25;10.43;;;8.40;;
60726;SDS011;46577;49.004;12.120;2023-06-19T04:13:51;13.30;;;8.80;;
60726;SDS011;46577;49.004;12.120;2023-06-19T04:16:16;15.00;;;8.40;;
60726;SDS011;46577;49.004;12.120;2023-06-19T04:18:42;17.93;;;8.53;;
60726;SDS011;46577;49.004;12.120;2023-06-19T04:21:07;13.20;;;8.53;;
60726;SDS011;46577;49.004;12.120;2023-06-19T04:23:33;10.20;;;8.37;;
60726;SDS011;46577;49.004;12.120;2023-06-19T04:25:59;16.50;;;9.63;;
60726;SDS011;46577;49.004;12.120;2023-06-19T04:28:24;11.17;;;8.93;;
60726;SDS011;46577;49.004;12.120;2023-06-19T04:30:51;11.70;;;7.93;;
60726;SDS011;46577;49.004;12.120;2023-06-19T04:33:25;11.33;;;8.43;;
60726;SDS011;46577;49.004;12.120;2023-06-19T04:35:54;11.93;;;9.03;;
60726;SDS011;46577;49.004;12.120;2023-06-19T04:38:23;15.90;;;9.37;;
60726;SDS011;46577;49.004;12.120;2023-06-19T04:40:49;16.23;;;9.07;;
60726;SDS011;46577;49.004;12.120;2023-06-19T04:43:17;12.10;;;8.80;;
60726;SDS011;46577;49.004;12.120;2023-06-19T04:45:43;14.70;;;9.60;;
60726;SDS011;46577;49.004;12.120;2023-06-19T04:48:09;21.33;;;9.80;;
60726;SDS011;46577;49.004;12.120;2023-06-19T04:50:35;13.57;;;8.90;;
60726;SDS011;46577;49.004;12.120;2023-06-19T04:53:00;25.83;;;10.10;;
60726;SDS011;46577;49.004;12.120;2023-06-19T04:55:26;15.83;;;10.70;;
60726;SDS011;46577;49.004;12.120;2023-06-19T04:57:52;22.90;;;10.20;;
60726;SDS011;46577;49.004;12.120;2023-06-19T05:00:18;20.10;;;11.27;;
60726;SDS011;46577;49.004;12.120;2023-06-19T05:02:44;20.17;;;10.33;;
60726;SDS011;46577;49.004;12.120;2023-06-19T05:05:12;17.40;;;9.57;;
60726;SDS011;46577;49.004;12.120;2023-06-19T05:07:38;12.40;;;9.40;;
60726;SDS011;46577;49.004;12.120;2023-06-19T05:10:04;14.03;;;9.00;;
60726;SDS011;46577;49.004;12.120;2023-06-19T05:12:30;13.90;;;8.90;;
60726;SDS011;46577;49.004;12.120;2023-06-19T05:14:56;16.43;;;9.33;;
60726;SDS011;46577;49.004;12.120;2023-06-19T05:17:21;10.77;;;8.63;;
60726;SDS011;46577;49.004;12.120;2023-06-19T05:19:47;14.20;;;8.67;;
60726;SDS011;46577;49.004;12.120;2023-06-19T05:22:13;19.67;;;11.03;;
60726;SDS011;46577;49.004;12.120;2023-06-19T05:24:38;14.23;;;8.63;;
60726;SDS011;46577;49.004;12.120;2023-06-19T05:27:04;13.40;;;8.27;;
60726;SDS011;46577;49.004;12.120;2023-06-19T05:29:30;9.80;;;8.70;;
60726;SDS011;46577;49.004;12.120;2023-06-19T05:31:56;14.90;;;9.27;;
60726;SDS011;46577;49.004;12.120;2023-06-19T05:34:22;12.00;;;8.43;;
60726;SDS011;46577;49.004;12.120;2023-06-19T05:36:47;13.37;;;8.90;;
60726;SDS011;46577;49.004;12.120;2023-06-19T05:39:13;11.50;;;9.23;;
60726;SDS011;46577;49.004;12.120;2023-06-19T05:41:39;18.27;;;9.47;;
60726;SDS011;46577;49.004;12.120;2023-06-19T05:44:06;11.47;;;9.33;;
60726;SDS011;46577;49.004;12.120;2023-06-19T05:46:32;16.10;;;10.33;;
60726;SDS011;46577;49.004;12.120;2023-06-19T05:48:57;14.30;;;8.90;;
60726;SDS011;46577;49.004;12.120;2023-06-19T05:51:23;12.53;;;9.47;;
60726;SDS011;46577;49.004;12.120;2023-06-19T05:53:48;11.83;;;8.47;;
60726;SDS011;46577;49.004;12.120;2023-06-19T05:56:14;19.80;;;9.90;;
60726;SDS011;46577;49.004;12.120;2023-06-19T05:58:40;13.30;;;9.30;;
60726;SDS011;46577;49.004;12.120;2023-06-19T06:01:06;15.40;;;9.20;;
60726;SDS011;46577;49.004;12.120;2023-06-19T06:03:32;10.80;;;9.00;;
60726;SDS011;46577;49.004;12.120;2023-06-19T06:05:58;11.03;;;8.90;;
60726;SDS011;46577;49.004;12.120;2023-06-19T06:08:30;14.43;;;8.20;;
60726;SDS011;46577;49.004;12.120;2023-06-19T06:10:57;13.50;;;9.00;;
60726;SDS011;46577;49.004;12.120;2023-06-19T06:13:22;16.83;;;8.73;;
60726;SDS011;46577;49.004;12.120;2023-06-19T06:15:48;19.27;;;8.20;;
60726;SDS011;46577;49.004;12.120;2023-06-19T06:18:14;12.80;;;9.60;;
60726;SDS011;46577;49.004;12.120;2023-06-19T06:20:40;14.13;;;9.30;;
60726;SDS011;46577;49.004;12.120;2023-06-19T06:23:05;13.87;;;9.70;;
60726;SDS011;46577;49.004;12.120;2023-06-19T06:25:31;16.50;;;10.53;;
60726;SDS011;46577;49.004;12.120;2023-06-19T06:27:56;12.73;;;8.87;;
60726;SDS011;46577;49.004;12.120;2023-06-19T06:30:22;13.67;;;8.90;;
60726;SDS011;46577;49.004;12.120;2023-06-19T06:32:48;12.80;;;8.80;;
60726;SDS011;46577;49.004;12.120;2023-06-19T06:35:15;13.83;;;9.10;;
60726;SDS011;46577;49.004;12.120;2023-06-19T06:37:41;11.87;;;8.33;;
60726;SDS011;46577;49.004;12.120;2023-06-19T06:40:07;13.17;;;8.80;;
60726;SDS011;46577;49.004;12.120;2023-06-19T06:42:38;13.10;;;9.17;;
60726;SDS011;46577;49.004;12.120;2023-06-19T06:45:05;11.23;;;8.20;;
60726;SDS011;46577;49.004;12.120;2023-06-19T06:47:31;14.20;;;9.60;;
60726;SDS011;46577;49.004;12.120;2023-06-19T06:49:57;11.37;;;8.27;;
60726;SDS011;46577;49.004;12.120;2023-06-19T06:52:23;9.73;;;8.60;;
60726;SDS011;46577;49.004;12.120;2023-06-19T06:54:49;10.10;;;8.70;;
60726;SDS011;46577;49.004;12.120;2023-06-19T06:57:14;9.80;;;8.03;;
60726;SDS011;46577;49.004;12.120;2023-06-19T06:59:40;9.87;;;8.13;;
60726;SDS011;46577;49.004;12.120;2023-06-19T07:02:05;17.27;;;8.93;;
60726;SDS011;46577;49.004;12.120;2023-06-19T07:04:31;15.83;;;8.07;;
60726;SDS011;46577;49.004;12.120;2023-06-19T07:06:57;12.60;;;8.10;;
60726;SDS011;46577;49.004;12.120;2023-06-19T07:09:23;9.63;;;8.63;;
60726;SDS011;46577;49.004;12.120;2023-06-19T07:11:48;17.43;;;9.17;;
60726;SDS011;46577;49.004;12.120;2023-06-19T07:14:14;12.80;;;7.77;;
60726;SDS011;46577;49.004;12.120;2023-06-19T07:16:43;13.47;;;7.93;;
60726;SDS011;46577;49.004;12.120;2023-06-19T07:19:11;10.53;;;6.90;;
60726;SDS011;46577;49.004;12.120;2023-06-19T07:21:37;7.63;;;6.83;;
60726;SDS011;46577;49.004;12.120;2023-06-19T07:24:04;8.20;;;6.70;;
60726;SDS011;46577;49.004;12.120;2023-06-19T07:26:30;7.80;;;7.10;;
60726;SDS011;46577;49.004;12.120;2023-06-19T07:28:56;9.10;;;6.93;;
60726;SDS011;46577;49.004;12.120;2023-06-19T07:31:23;9.80;;;7.50;;
60726;SDS011;46577;49.004;12.120;2023-06-19T07:33:48;10.73;;;7.27;;
60726;SDS011;46577;49.004;12.120;2023-06-19T07:36:14;13.47;;;8.10;;
60726;SDS011;46577;49.004;12.120;2023-06-19T07:38:41;10.90;;;8.80;;
60726;SDS011;46577;49.004;12.120;2023-06-19T07:41:08;8.37;;;7.67;;
60726;SDS011;46577;49.004;12.120;2023-06-19T07:43:35;11.43;;;7.53;;
60726;SDS011;46577;49.004;12.120;2023-06-19T07:46:01;7.97;;;7.20;;
60726;SDS011;46577;49.004;12.120;2023-06-19T07:48:26;11.50;;;7.17;;
60726;SDS011;46577;49.004;12.120;2023-06-19T07:50:53;13.13;;;8.20;;
60726;SDS011;46577;49.004;12.120;2023-06-19T07:53:19;9.50;;;8.50;;
60726;SDS011;46577;49.004;12.120;2023-06-19T07:55:44;11.20;;;8.57;;
60726;SDS011;46577;49.004;12.120;2023-06-19T07:58:10;16.00;;;8.33;;
60726;SDS011;46577;49.004;12.120;2023-06-19T08:00:35;11.27;;;8.00;;
60726;SDS011;46577;49.004;12.120;2023-06-19T08:03:01;8.43;;;7.63;;
60726;SDS011;46577;49.004;12.120;2023-06-19T08:05:27;8.90;;;7.43;;
60726;SDS011;46577;49.004;12.120;2023-06-19T08:07:52;12.40;;;6.70;;
60726;SDS011;46577;49.004;12.120;2023-06-19T08:10:18;7.88;;;6.82;;
60726;SDS011;46577;49.004;12.120;2023-06-19T08:12:44;6.20;;;5.32;;
60726;SDS011;46577;49.004;12.120;2023-06-19T08:15:10;14.88;;;5.40;;
60726;SDS011;46577;49.004;12.120;2023-06-19T08:17:38;11.35;;;5.75;;
60726;SDS011;46577;49.004;12.120;2023-06-19T08:20:04;6.47;;;5.15;;
60726;SDS011;46577;49.004;12.120;2023-06-19T08:22:32;7.63;;;5.30;;
60726;SDS011;46577;49.004;12.120;2023-06-19T08:24:57;6.78;;;6.15;;
60726;SDS011;46577;49.004;12.120;2023-06-19T08:27:25;6.45;;;5.85;;
60726;SDS011;46577;49.004;12.120;2023-06-19T08:29:51;8.32;;;5.60;;
60726;SDS011;46577;49.004;12.120;2023-06-19T08:32:16;10.02;;;6.60;;
60726;SDS011;46577;49.004;12.120;2023-06-19T08:34:42;11.40;;;7.20;;
60726;SDS011;46577;49.004;12.120;2023-06-19T08:37:08;7.70;;;6.63;;
60726;SDS011;46577;49.004;12.120;2023-06-19T08:39:34;8.35;;;6.93;;
60726;SDS011;46577;49.004;12.120;2023-06-19T08:42:03;13.87;;;7.20;;
60726;SDS011;46577;49.004;12.120;2023-06-19T08:44:30;15.63;;;6.90;;
60726;SDS011;46577;49.004;12.120;2023-06-19T08:46:57;12.13;;;6.40;;
60726;SDS011;46577;49.004;12.120;2023-06-19T08:49:22;8.30;;;7.20;;
60726;SDS011;46577;49.004;12.120;2023-06-19T08:51:48;14.30;;;7.40;;
60726;SDS011;46577;49.004;12.120;2023-06-19T08:54:14;9.77;;;7.50;;
60726;SDS011;46577;49.004;12.120;2023-06-19T08:56:39;9.30;;;6.50;;
60726;SDS011;46577;49.004;12.120;2023-06-19T08:59:15;13.33;;;6.67;;
60726;SDS011;46577;49.004;12.120;2023-06-19T09:01:47;8.30;;;7.40;;
60726;SDS011;46577;49.004;12.120;2023-06-19T09:04:18;9.30;;;7.57;;
60726;SDS011;46577;49.004;12.120;2023-06-19T09:06:54;7.77;;;6.53;;
60726;SDS011;46577;49.004;12.120;2023-06-19T09:09:22;9.87;;;6.67;;
60726;SDS011;46577;49.004;12.120;2023-06-19T09:12:02;11.23;;;6.55;;
60726;SDS011;46577;49.004;12.120;2023-06-19T09:17:18;7.93;;;6.10;;
60726;SDS011;46577;49.004;12.120;2023-06-19T09:19:49;9.60;;;7.13;;
60726;SDS011;46577;49.004;12.120;2023-06-19T09:22:16;7.37;;;6.50;;
60726;SDS011;46577;49.004;12.120;2023-06-19T09:24:45;13.23;;;7.60;;
60726;SDS011;46577;49.004;12.120;2023-06-19T09:27:13;13.43;;;7.73;;
60726;SDS011;46577;49.004;12.120;2023-06-19T09:29:43;12.13;;;7.73;;
60726;SDS011;46577;49.004;12.120;2023-06-19T09:34:45;13.63;;;7.07;;
60726;SDS011;46577;49.004;12.120;2023-06-19T09:37:11;7.17;;;6.27;;
60726;SDS011;46577;49.004;12.120;2023-06-19T09:39:37;6.97;;;6.37;;
60726;SDS011;46577;49.004;12.120;2023-06-19T09:42:04;13.10;;;6.50;;
60726;SDS011;46577;49.004;12.120;2023-06-19T09:44:34;7.27;;;6.50;;
60726;SDS011;46577;49.004;12.120;2023-06-19T09:47:09;6.23;;;5.63;;
60726;SDS011;46577;49.004;12.120;2023-06-19T09:49:48;9.63;;;5.77;;
60726;SDS011;46577;49.004;12.120;2023-06-19T09:52:17;5.73;;;5.23;;
60726;SDS011;46577;49.004;12.120;2023-06-19T09:54:47;5.30;;;4.90;;
60726;SDS011;46577;49.004;12.120;2023-06-19T09:57:14;6.23;;;5.63;;
60726;SDS011;46577;49.004;12.120;2023-06-19T09:59:40;7.93;;;5.10;;
60726;SDS011;46577;49.004;12.120;2023-06-19T10:02:07;5.83;;;5.27;;
60726;SDS011;46577;49.004;12.120;2023-06-19T10:04:44;9.90;;;5.30;;
60726;SDS011;46577;49.004;12.120;2023-06-19T10:07:20;5.67;;;4.60;;
60726;SDS011;46577;49.004;12.120;2023-06-19T10:12:49;5.70;;;5.20;;
60726;SDS011;46577;49.004;12.120;2023-06-19T10:15:16;6.57;;;5.50;;
60726;SDS011;46577;49.004;12.120;2023-06-19T10:17:51;6.27;;;5.63;;
60726;SDS011;46577;49.004;12.120;2023-06-19T10:20:25;6.60;;;6.00;;
60726;SDS011;46577;49.004;12.120;2023-06-19T10:22:55;6.87;;;6.27;;
60726;SDS011;46577;49.004;12.120;2023-06-19T10:25:28;6.77;;;5.30;;
60726;SDS011;46577;49.004;12.120;2023-06-19T10:27:56;5.93;;;5.33;;
60726;SDS011;46577;49.004;12.120;2023-06-19T10:30:22;5.73;;;5.23;;
60726;SDS011;46577;49.004;12.120;2023-06-19T10:32:48;5.50;;;5.10;;
60726;SDS011;46577;49.004;12.120;2023-06-19T10:35:14;5.40;;;4.90;;
60726;SDS011;46577;49.004;12.120;2023-06-19T10:37:41;5.00;;;4.60;;
60726;SDS011;46577;49.004;12.120;2023-06-19T10:40:08;5.33;;;4.33;;
60726;SDS011;46577;49.004;12.120;2023-06-19T10:42:38;4.97;;;4.57;;
60726;SDS011;46577;49.004;12.120;2023-06-19T10:45:06;4.03;;;3.73;;
60726;SDS011;46577;49.004;12.120;2023-06-19T10:47:34;5.32;;;4.40;;
60726;SDS011;46577;49.004;12.120;2023-06-19T10:50:00;4.00;;;3.70;;
60726;SDS011;46577;49.004;12.120;2023-06-19T10:52:28;4.78;;;3.97;;
60726;SDS011;46577;49.004;12.120;2023-06-19T10:54:55;3.95;;;3.55;;
60726;SDS011;46577;49.004;12.120;2023-06-19T10:57:28;4.13;;;3.83;;
60726;SDS011;46577;49.004;12.120;2023-06-19T10:59:54;8.73;;;4.00;;
60726;SDS011;46577;49.004;12.120;2023-06-19T11:02:20;4.80;;;4.40;;
60726;SDS011;46577;49.004;12.120;2023-06-19T11:04:46;5.00;;;4.50;;
60726;SDS011;46577;49.004;12.120;2023-06-19T11:07:12;4.40;;;3.80;;
60726;SDS011;46577;49.004;12.120;2023-06-19T11:09:38;5.87;;;4.20;;
60726;SDS011;46577;49.004;12.120;2023-06-19T11:12:03;4.40;;;4.10;;
60726;SDS011;46577;49.004;12.120;2023-06-19T11:14:32;5.47;;;4.90;;
60726;SDS011;46577;49.004;12.120;2023-06-19T11:17:04;5.03;;;4.63;;
60726;SDS011;46577;49.004;12.120;2023-06-19T11:19:30;5.30;;;4.80;;
60726;SDS011;46577;49.004;12.120;2023-06-19T11:21:58;4.63;;;4.33;;
60726;SDS011;46577;49.004;12.120;2023-06-19T11:24:25;5.03;;;4.53;;
60726;SDS011;46577;49.004;12.120;2023-06-19T11:26:51;9.40;;;4.90;;
60726;SDS011;46577;49.004;12.120;2023-06-19T11:29:20;4.40;;;4.00;;
60726;SDS011;46577;49.004;12.120;2023-06-19T11:31:48;6.67;;;4.97;;
60726;SDS011;46577;49.004;12.120;2023-06-19T11:34:14;7.03;;;4.50;;
60726;SDS011;46577;49.004;12.120;2023-06-19T11:36:41;6.83;;;4.43;;
60726;SDS011;46577;49.004;12.120;2023-06-19T11:39:11;10.80;;;5.30;;
60726;SDS011;46577;49.004;12.120;2023-06-19T11:41:38;6.63;;;5.53;;
60726;SDS011;46577;49.004;12.120;2023-06-19T11:44:05;4.67;;;4.23;;
60726;SDS011;46577;49.004;12.120;2023-06-19T11:46:32;11.07;;;5.13;;
60726;SDS011;46577;49.004;12.120;2023-06-19T11:49:15;5.13;;;4.60;;
60726;SDS011;46577;49.004;12.120;2023-06-19T11:51:43;4.97;;;4.43;;
60726;SDS011;46577;49.004;12.120;2023-06-19T11:54:10;5.90;;;4.70;;
60726;SDS011;46577;49.004;12.120;2023-06-19T11:56:39;9.20;;;5.33;;
60726;SDS011;46577;49.004;12.120;2023-06-19T11:59:05;5.40;;;4.70;;
60726;SDS011;46577;49.004;12.120;2023-06-19T12:01:31;19.13;;;6.10;;
60726;SDS011;46577;49.004;12.120;2023-06-19T12:03:57;13.70;;;6.60;;
60726;SDS011;46577;49.004;12.120;2023-06-19T12:06:23;22.93;;;6.67;;
60726;SDS011;46577;49.004;12.120;2023-06-19T12:08:49;18.57;;;6.17;;
60726;SDS011;46577;49.004;12.120;2023-06-19T12:11:15;22.50;;;5.93;;
60726;SDS011;46577;49.004;12.120;2023-06-19T12:13:41;8.60;;;4.80;;
60726;SDS011;46577;49.004;12.120;2023-06-19T12:16:07;8.03;;;5.10;;
60726;SDS011;46577;49.004;12.120;2023-06-19T12:18:34;9.20;;;5.40;;
60726;SDS011;46577;49.004;12.120;2023-06-19T12:21:00;9.50;;;4.30;;
60726;SDS011;46577;49.004;12.120;2023-06-19T12:23:25;14.37;;;5.70;;
60726;SDS011;46577;49.004;12.120;2023-06-19T12:25:51;30.40;;;6.47;;
60726;SDS011;46577;49.004;12.120;2023-06-19T12:28:16;19.17;;;6.20;;
60726;SDS011;46577;49.004;12.120;2023-06-19T12:30:44;31.40;;;7.03;;
60726;SDS011;46577;49.004;12.120;2023-06-19T12:33:10;15.10;;;6.10;;
60726;SDS011;46577;49.004;12.120;2023-06-19T12:35:38;14.67;;;5.70;;
60726;SDS011;46577;49.004;12.120;2023-06-19T12:38:04;10.77;;;4.90;;
60726;SDS011;46577;49.004;12.120;2023-06-19T12:40:30;11.20;;;4.93;;
60726;SDS011;46577;49.004;12.120;2023-06-19T12:42:55;8.70;;;5.20;;
60726;SDS011;46577;49.004;12.120;2023-06-19T12:45:21;11.10;;;4.97;;
60726;SDS011;46577;49.004;12.120;2023-06-19T12:47:47;31.83;;;5.60;;
60726;SDS011;46577;49.004;12.120;2023-06-19T12:50:12;9.20;;;4.13;;
60726;SDS011;46577;49.004;12.120;2023-06-19T12:52:38;4.80;;;4.00;;
60726;SDS011;46577;49.004;12.120;2023-06-19T12:55:03;4.23;;;3.60;;
60726;SDS011;46577;49.004;12.120;2023-06-19T12:57:29;6.50;;;4.60;;
60726;SDS011;46577;49.004;12.120;2023-06-19T12:59:55;12.00;;;4.40;;
60726;SDS011;46577;49.004;12.120;2023-06-19T13:02:21;16.00;;;4.00;;
60726;SDS011;46577;49.004;12.120;2023-06-19T13:04:46;15.93;;;4.33;;
60726;SDS011;46577;49.004;12.120;2023-06-19T13:07:12;7.50;;;4.60;;
60726;SDS011;46577;49.004;12.120;2023-06-19T13:09:37;11.73;;;4.80;;
60726;SDS011;46577;49.004;12.120;2023-06-19T13:12:03;9.77;;;4.73;;
60726;SDS011;46577;49.004;12.120;2023-06-19T13:14:29;6.70;;;3.90;;
60726;SDS011;46577;49.004;12.120;2023-06-19T13:16:56;16.00;;;3.90;;
60726;SDS011;46577;49.004;12.120;2023-06-19T13:19:22;22.73;;;5.13;;
60726;SDS011;46577;49.004;12.120;2023-06-19T13:21:48;25.03;;;5.03;;
60726;SDS011;46577;49.004;12.120;2023-06-19T13:24:13;13.57;;;5.10;;
60726;SDS011;46577;49.004;12.120;2023-06-19T13:26:39;47.00;;;6.90;;
60726;SDS011;46577;49.004;12.120;2023-06-19T13:29:05;14.30;;;4.63;;
60726;SDS011;46577;49.004;12.120;2023-06-19T13:31:30;5.97;;;4.80;;
60726;SDS011;46577;49.004;12.120;2023-06-19T13:33:56;5.20;;;4.70;;
60726;SDS011;46577;49.004;12.120;2023-06-19T13:36:23;5.80;;;4.97;;
60726;SDS011;46577;49.004;12.120;2023-06-19T13:38:51;7.40;;;4.60;;
60726;SDS011;46577;49.004;12.120;2023-06-19T13:41:17;7.00;;;4.13;;
60726;SDS011;46577;49.004;12.120;2023-06-19T13:43:43;6.10;;;4.73;;
60726;SDS011;46577;49.004;12.120;2023-06-19T13:46:11;5.83;;;5.23;;
60726;SDS011;46577;49.004;12.120;2023-06-19T13:48:37;6.33;;;4.90;;
60726;SDS011;46577;49.004;12.120;2023-06-19T13:51:02;5.50;;;4.60;;
60726;SDS011;46577;49.004;12.120;2023-06-19T13:53:28;8.50;;;4.37;;
60726;SDS011;46577;49.004;12.120;2023-06-19T13:55:54;7.63;;;4.80;;
60726;SDS011;46577;49.004;12.120;2023-06-19T13:58:20;5.07;;;4.60;;
60726;SDS011;46577;49.004;12.120;2023-06-19T14:00:46;5.90;;;5.20;;
60726;SDS011;46577;49.004;12.120;2023-06-19T14:03:12;10.50;;;5.20;;
60726;SDS011;46577;49.004;12.120;2023-06-19T14:05:38;6.13;;;5.40;;
60726;SDS011;46577;49.004;12.120;2023-06-19T14:08:04;5.87;;;5.20;;
60726;SDS011;46577;49.004;12.120;2023-06-19T14:10:30;13.27;;;6.10;;
60726;SDS011;46577;49.004;12.120;2023-06-19T14:12:56;5.10;;;4.67;;
60726;SDS011;46577;49.004;12.120;2023-06-19T14:15:21;6.07;;;5.57;;
60726;SDS011;46577;49.004;12.120;2023-06-19T14:17:47;6.20;;;5.03;;
60726;SDS011;46577;49.004;12.120;2023-06-19T14:20:12;8.00;;;5.33;;
60726;SDS011;46577;49.004;12.120;2023-06-19T14:22:38;11.70;;;6.17;;
60726;SDS011;46577;49.004;12.120;2023-06-19T14:25:04;10.93;;;6.43;;
60726;SDS011;46577;49.004;12.120;2023-06-19T14:27:30;68.43;;;10.10;;
60726;SDS011;46577;49.004;12.120;2023-06-19T14:29:56;8.77;;;5.40;;
60726;SDS011;46577;49.004;12.120;2023-06-19T14:32:22;15.50;;;5.77;;